Time;durP1;ratioP1;P1;durP2;ratioP2;P2;SDS_P1;SDS_P2;PMS_P1;PMS_P2;Temp;Humidity;BMP_temperature;BMP_pressure;BME280_temperature;BME280_humidity;BME280_pressure;Samples;Min_cycle;Max_cycle;Signal;HPM_P1;HPM_P2
2024/04/25 00:00:13;;;;;;;6.53;3.83;;;6.90;99.90;;;;;;5497138;26;20514;-73
2024/04/25 00:03:00;;;;;;;10.43;3.70;;;6.90;99.90;;;;;;5489294;26;20521;-72
2024/04/25 00:05:48;;;;;;;5.47;3.50;;;6.90;99.90;;;;;;5480493;26;20501;-73
2024/04/25 00:08:35;;;;;;;4.70;3.97;;;6.90;99.90;;;;;;5483997;26;20839;-72
2024/04/25 00:11:26;;;;;;;5.53;3.70;;;6.90;99.90;;;;;;5488223;26;20512;-72
2024/04/25 00:14:13;;;;;;;6.13;4.07;;;6.90;99.90;;;;;;5485778;26;20499;-72
2024/04/25 00:17:00;;;;;;;6.87;3.80;;;6.80;99.90;;;;;;5489745;26;20564;-72
2024/04/25 00:19:48;;;;;;;7.53;4.23;;;6.80;99.90;;;;;;5488337;26;20506;-72
2024/04/25 00:22:35;;;;;;;4.67;3.53;;;6.80;99.90;;;;;;5486091;26;20518;-72
2024/04/25 00:25:22;;;;;;;7.00;4.00;;;6.80;99.90;;;;;;5489367;26;20901;-72
2024/04/25 00:28:14;;;;;;;10.30;4.30;;;6.90;99.90;;;;;;5485471;26;20505;-72
2024/04/25 00:31:01;;;;;;;7.50;3.80;;;6.70;99.90;;;;;;5486389;26;20873;-72
2024/04/25 00:33:48;;;;;;;8.90;5.17;;;6.70;99.90;;;;;;5483274;26;20499;-72
2024/04/25 00:36:35;;;;;;;7.50;3.93;;;6.80;99.90;;;;;;5493533;26;20543;-72
2024/04/25 00:39:23;;;;;;;8.13;4.63;;;6.80;99.90;;;;;;5486982;26;20502;-72
2024/04/25 00:42:16;;;;;;;6.00;4.00;;;6.70;99.90;;;;;;5502635;26;20500;-72
2024/04/25 00:45:07;;;;;;;5.93;3.80;;;6.60;99.90;;;;;;5494990;25;20499;-72
2024/04/25 00:47:55;;;;;;;5.57;3.80;;;6.60;99.90;;;;;;5498498;26;20578;-72
2024/04/25 00:50:43;;;;;;;6.57;4.10;;;6.60;99.90;;;;;;5489222;26;20901;-72
2024/04/25 00:53:31;;;;;;;14.50;3.87;;;6.60;99.90;;;;;;5482542;26;20816;-72
2024/04/25 00:56:20;;;;;;;5.53;4.00;;;6.70;99.90;;;;;;5482950;26;20502;-72
2024/04/25 00:59:11;;;;;;;5.10;3.50;;;6.70;99.90;;;;;;5479686;26;20556;-72
2024/04/25 01:02:03;;;;;;;6.37;3.80;;;6.60;99.90;;;;;;5493138;26;20677;-72
2024/04/25 01:04:51;;;;;;;9.40;3.90;;;6.40;99.90;;;;;;5485161;26;20837;-72
2024/04/25 01:07:38;;;;;;;6.60;4.13;;;6.20;99.90;;;;;;5484115;26;20545;-72
2024/04/25 01:10:25;;;;;;;6.03;4.63;;;6.30;99.90;;;;;;5485104;26;20551;-72
2024/04/25 01:13:13;;;;;;;7.53;3.83;;;6.30;99.90;;;;;;5474049;26;20827;-72
2024/04/25 01:16:01;;;;;;;7.80;4.17;;;6.40;99.90;;;;;;5493891;26;20546;-72
2024/04/25 01:18:51;;;;;;;6.77;4.13;;;6.40;99.90;;;;;;5486385;26;20886;-72
2024/04/25 01:21:38;;;;;;;7.83;4.57;;;6.40;99.90;;;;;;5491212;26;20535;-73
2024/04/25 01:24:28;;;;;;;7.32;3.80;;;6.40;99.90;;;;;;5489540;26;20550;-72
2024/04/25 01:27:19;;;;;;;8.40;4.43;;;6.40;99.90;;;;;;5491453;26;20282;-72
2024/04/25 01:30:09;;;;;;;6.00;4.67;;;6.50;99.90;;;;;;5482900;26;20569;-72
2024/04/25 01:32:57;;;;;;;5.53;4.13;;;6.50;99.90;;;;;;5495797;26;20493;-72
2024/04/25 01:35:46;;;;;;;6.00;4.00;;;6.50;99.90;;;;;;5481142;26;20571;-72
2024/04/25 01:38:33;;;;;;;8.67;4.37;;;6.70;99.90;;;;;;5497436;26;20537;-72
2024/04/25 01:41:21;;;;;;;8.70;5.00;;;6.70;99.90;;;;;;5494297;26;20495;-72
2024/04/25 01:44:11;;;;;;;7.03;4.33;;;6.60;99.90;;;;;;5490975;26;20508;-72
2024/04/25 01:46:58;;;;;;;10.13;4.20;;;6.60;99.90;;;;;;5497360;26;20499;-72
2024/04/25 01:49:45;;;;;;;9.17;4.67;;;6.60;99.90;;;;;;5485591;26;20539;-72
2024/04/25 01:52:33;;;;;;;6.53;4.40;;;6.50;99.90;;;;;;5501471;26;20511;-72
2024/04/25 01:55:23;;;;;;;6.90;4.10;;;6.60;99.90;;;;;;5495739;25;20501;-72
2024/04/25 01:58:11;;;;;;;8.20;4.70;;;6.50;99.90;;;;;;5505166;26;20514;-72
2024/04/25 02:01:01;;;;;;;5.60;4.50;;;6.50;99.90;;;;;;5493526;26;20573;-73
2024/04/25 02:03:48;;;;;;;8.05;6.25;;;6.50;99.90;;;;;;5497042;26;20564;-73
2024/04/25 02:06:35;;;;;;;11.10;5.00;;;6.50;99.90;;;;;;5487904;25;20286;-73
2024/04/25 02:09:22;;;;;;;9.60;4.77;;;6.40;99.90;;;;;;5497286;26;20566;-73
2024/04/25 02:12:10;;;;;;;11.20;4.50;;;6.30;99.90;;;;;;5487784;26;20553;-72
2024/04/25 02:14:57;;;;;;;8.57;4.77;;;6.20;99.90;;;;;;5485946;26;20557;-73
2024/04/25 02:17:47;;;;;;;9.17;4.63;;;6.20;99.90;;;;;;5483855;26;20544;-73
2024/04/25 02:26:43;;;;;;;10.80;5.53;;;6.10;99.90;;;;;;5494217;25;20595;-73
2024/04/25 02:29:31;;;;;;;11.47;5.07;;;6.20;99.90;;;;;;5492875;26;20507;-73
2024/04/25 02:32:18;;;;;;;17.73;5.10;;;6.30;99.90;;;;;;5495975;26;20520;-73
2024/04/25 02:35:08;;;;;;;14.47;5.37;;;6.40;99.90;;;;;;5493556;26;20557;-73
2024/04/25 02:37:56;;;;;;;9.97;4.80;;;6.30;99.90;;;;;;5489407;26;20583;-73
2024/04/25 02:40:45;;;;;;;8.30;4.60;;;6.30;99.90;;;;;;5486672;26;20504;-73
2024/04/25 02:43:32;;;;;;;9.90;4.53;;;6.30;99.90;;;;;;5485346;26;20507;-72
2024/04/25 02:46:17;;;;;;;10.30;5.07;;;6.20;99.90;;;;;;5500457;25;20981;-72
2024/04/25 02:49:04;;;;;;;8.60;4.87;;;6.10;99.90;;;;;;5490540;26;21194;-73
2024/04/25 02:51:52;;;;;;;8.10;4.97;;;6.10;99.90;;;;;;5496685;26;20709;-72
2024/04/25 02:54:39;;;;;;;8.30;5.13;;;6.10;99.90;;;;;;5489450;26;20285;-73
2024/04/25 02:57:23;;;;;;;7.60;4.70;;;6.20;99.90;;;;;;5495750;26;20507;-73
2024/04/25 03:00:12;;;;;;;8.83;5.00;;;6.20;99.90;;;;;;5494177;26;20514;-73
2024/04/25 03:02:56;;;;;;;12.17;6.00;;;6.20;99.90;;;;;;5488774;26;20497;-72
2024/04/25 03:05:44;;;;;;;13.33;5.40;;;6.20;99.90;;;;;;5484542;26;20503;-73
2024/04/25 03:08:31;;;;;;;6.33;5.00;;;6.20;99.90;;;;;;5489646;26;20502;-73
2024/04/25 03:11:19;;;;;;;17.83;5.32;;;6.20;99.90;;;;;;5500641;26;21131;-73
2024/04/25 03:14:04;;;;;;;18.10;6.07;;;6.20;99.90;;;;;;5490320;26;20330;-73
2024/04/25 03:16:51;;;;;;;10.80;6.20;;;6.30;99.90;;;;;;5486646;26;20513;-72
2024/04/25 03:19:35;;;;;;;10.10;5.97;;;6.40;99.90;;;;;;5486764;26;20495;-73
2024/04/25 03:22:23;;;;;;;18.53;5.70;;;6.40;99.90;;;;;;5489861;26;20505;-73
2024/04/25 03:25:10;;;;;;;7.20;5.87;;;6.40;99.90;;;;;;5489749;26;20899;-72
2024/04/25 03:27:58;;;;;;;10.97;5.40;;;6.30;99.90;;;;;;5499421;26;20515;-72
2024/04/25 03:30:45;;;;;;;17.23;6.70;;;6.30;99.90;;;;;;5486792;26;20498;-72
2024/04/25 03:33:30;;;;;;;9.50;6.07;;;6.20;99.90;;;;;;5487446;26;20879;-72
2024/04/25 03:36:17;;;;;;;8.47;5.70;;;6.30;99.90;;;;;;5487145;26;20568;-72
2024/04/25 03:39:04;;;;;;;9.87;6.70;;;6.30;99.90;;;;;;5490087;26;20995;-73
2024/04/25 03:41:54;;;;;;;10.37;6.43;;;6.40;99.90;;;;;;5488052;26;21033;-73
2024/04/25 03:44:41;;;;;;;9.57;6.87;;;6.50;99.90;;;;;;5487850;26;20503;-73
2024/04/25 03:47:29;;;;;;;11.00;6.90;;;6.50;99.90;;;;;;5479091;26;20539;-73
2024/04/25 03:50:20;;;;;;;8.73;5.80;;;6.60;99.90;;;;;;5486337;26;20520;-73
2024/04/25 03:53:08;;;;;;;19.97;7.57;;;6.50;99.90;;;;;;5499200;26;21057;-72
2024/04/25 03:55:55;;;;;;;9.37;6.70;;;6.40;99.90;;;;;;5493685;26;20566;-73
2024/04/25 03:58:45;;;;;;;12.27;8.13;;;6.40;99.90;;;;;;5494607;26;20565;-73
2024/04/25 04:01:32;;;;;;;8.57;6.37;;;6.50;99.90;;;;;;5497364;26;20563;-73
2024/04/25 04:04:20;;;;;;;10.93;6.73;;;6.60;99.90;;;;;;5484419;26;20543;-73
2024/04/25 04:07:07;;;;;;;13.63;7.27;;;6.50;99.90;;;;;;5498907;25;20517;-72
2024/04/25 04:09:54;;;;;;;9.07;6.10;;;6.50;99.90;;;;;;5493941;26;20513;-72
2024/04/25 04:12:42;;;;;;;11.90;5.97;;;6.50;99.90;;;;;;5487488;26;20572;-73
2024/04/25 04:15:32;;;;;;;8.13;6.67;;;6.40;99.90;;;;;;5501655;26;20571;-73
2024/04/25 04:18:19;;;;;;;11.73;6.70;;;6.40;99.90;;;;;;5493780;26;20505;-72
2024/04/25 04:21:07;;;;;;;10.20;6.53;;;6.20;99.90;;;;;;5488168;26;20596;-72
2024/04/25 04:23:54;;;;;;;13.37;7.00;;;6.20;99.90;;;;;;5498656;26;20274;-72
2024/04/25 04:26:41;;;;;;;9.63;6.67;;;6.20;99.90;;;;;;5497672;25;20533;-72
2024/04/25 04:29:29;;;;;;;12.90;6.77;;;6.30;99.90;;;;;;5490257;26;20540;-73
2024/04/25 04:32:18;;;;;;;10.10;6.17;;;6.30;99.90;;;;;;5493576;26;20504;-73
2024/04/25 04:35:06;;;;;;;10.50;6.73;;;6.40;99.90;;;;;;5497241;25;20524;-73
2024/04/25 04:37:54;;;;;;;7.97;7.17;;;6.40;99.90;;;;;;5489861;26;20529;-73
2024/04/25 04:40:41;;;;;;;10.20;6.67;;;6.30;99.90;;;;;;5494914;26;20504;-73
2024/04/25 04:43:28;;;;;;;10.47;7.13;;;6.30;99.90;;;;;;5497701;26;20922;-72
2024/04/25 04:46:15;;;;;;;11.80;7.10;;;6.30;99.90;;;;;;5492534;26;20517;-73
2024/04/25 04:49:05;;;;;;;14.10;6.97;;;6.30;99.90;;;;;;5486681;26;20503;-74
2024/04/25 04:51:52;;;;;;;11.10;6.83;;;6.30;99.90;;;;;;5491230;26;20608;-72
2024/04/25 04:54:39;;;;;;;9.57;7.03;;;6.20;99.90;;;;;;5491197;26;20520;-72
2024/04/25 04:57:27;;;;;;;9.30;6.23;;;6.20;99.90;;;;;;5496979;26;20479;-73
2024/04/25 05:00:15;;;;;;;8.00;6.88;;;6.10;99.90;;;;;;5491249;26;20508;-72
2024/04/25 05:03:02;;;;;;;12.10;6.15;;;6.00;99.90;;;;;;5493376;26;20298;-73
2024/04/25 05:05:51;;;;;;;13.73;7.70;;;6.00;99.90;;;;;;5490875;26;20325;-73
2024/04/25 05:08:39;;;;;;;13.88;7.22;;;6.10;99.90;;;;;;5485353;26;20938;-73
2024/04/25 05:11:29;;;;;;;19.55;7.40;;;6.10;99.90;;;;;;5496760;26;20719;-73
2024/04/25 05:14:16;;;;;;;10.50;6.87;;;6.10;99.90;;;;;;5488703;26;20276;-74
2024/04/25 05:17:03;;;;;;;13.82;6.15;;;6.10;99.90;;;;;;5490223;26;20507;-73
2024/04/25 05:19:50;;;;;;;9.63;7.23;;;6.20;99.90;;;;;;5496233;26;20285;-73
2024/04/25 05:22:41;;;;;;;10.57;6.97;;;6.30;99.90;;;;;;5491329;26;20520;-72
2024/04/25 05:25:29;;;;;;;12.90;8.00;;;6.40;99.90;;;;;;5493460;26;20821;-73
2024/04/25 05:28:16;;;;;;;8.80;7.23;;;6.40;99.90;;;;;;5482112;26;20495;-72
2024/04/25 05:31:04;;;;;;;11.57;7.67;;;6.40;99.90;;;;;;5488553;26;20544;-73
2024/04/25 05:33:51;;;;;;;17.33;6.67;;;6.40;99.90;;;;;;5485045;26;20979;-73
2024/04/25 05:36:39;;;;;;;13.00;7.50;;;6.50;99.90;;;;;;5486166;26;20512;-72
2024/04/25 05:39:28;;;;;;;15.17;7.63;;;6.50;99.90;;;;;;5489457;26;20500;-72
2024/04/25 05:42:15;;;;;;;16.53;8.03;;;6.60;99.90;;;;;;5489447;26;20570;-72
2024/04/25 05:45:03;;;;;;;9.87;6.60;;;6.70;99.90;;;;;;5486134;26;20520;-73
2024/04/25 05:47:50;;;;;;;9.67;6.23;;;6.60;99.90;;;;;;5480802;26;20908;-72
2024/04/25 05:50:37;;;;;;;17.30;8.40;;;6.70;99.90;;;;;;5485021;26;20520;-73
2024/04/25 05:53:25;;;;;;;18.67;7.80;;;6.80;99.90;;;;;;5481396;26;20498;-72
2024/04/25 05:56:15;;;;;;;13.87;7.00;;;6.80;99.90;;;;;;5482972;26;20545;-73
2024/04/25 05:59:02;;;;;;;10.45;6.82;;;6.90;99.90;;;;;;5490906;26;20504;-73
2024/04/25 06:01:49;;;;;;;13.80;7.20;;;6.80;99.90;;;;;;5484705;26;20832;-73
2024/04/25 06:04:36;;;;;;;13.50;7.53;;;6.90;99.90;;;;;;5483838;26;20590;-73
2024/04/25 06:07:23;;;;;;;10.07;7.30;;;6.90;99.90;;;;;;5483810;26;20478;-73
2024/04/25 06:10:11;;;;;;;11.00;7.47;;;7.00;99.90;;;;;;5477851;26;20503;-73
2024/04/25 06:13:01;;;;;;;14.93;6.50;;;7.00;99.90;;;;;;5488620;26;20532;-73
2024/04/25 06:15:48;;;;;;;11.73;7.93;;;6.90;99.90;;;;;;5481582;26;20528;-73
2024/04/25 06:18:36;;;;;;;15.10;8.03;;;7.10;99.90;;;;;;5482097;26;20471;-73
2024/04/25 06:21:23;;;;;;;11.70;6.97;;;7.20;99.90;;;;;;5494117;26;20501;-73
2024/04/25 06:24:11;;;;;;;14.95;8.73;;;7.30;99.90;;;;;;5490465;26;20513;-73
2024/04/25 06:26:58;;;;;;;9.97;6.90;;;7.40;99.90;;;;;;5485389;26;20270;-72
2024/04/25 06:29:48;;;;;;;15.60;7.97;;;7.50;99.90;;;;;;5483465;26;20866;-73
2024/04/25 06:32:35;;;;;;;9.97;7.33;;;7.40;99.90;;;;;;5487545;26;22265;-72
2024/04/25 06:35:22;;;;;;;8.90;6.87;;;7.30;99.90;;;;;;5487319;26;20840;-72
2024/04/25 06:38:14;;;;;;;17.23;7.67;;;7.40;99.90;;;;;;5480500;26;20504;-73
2024/04/25 06:41:01;;;;;;;19.70;7.70;;;7.40;99.90;;;;;;5484150;26;20564;-73
2024/04/25 06:43:51;;;;;;;14.33;7.40;;;7.50;99.90;;;;;;5488932;26;20853;-73
2024/04/25 06:46:40;;;;;;;12.27;7.27;;;7.50;99.90;;;;;;5498782;26;20493;-73
2024/04/25 06:49:27;;;;;;;15.37;7.97;;;7.50;99.90;;;;;;5489712;26;20489;-73
2024/04/25 06:52:15;;;;;;;14.03;8.60;;;7.60;99.90;;;;;;5486088;26;20517;-72
2024/04/25 06:55:02;;;;;;;20.00;8.53;;;7.60;99.90;;;;;;5483768;26;20536;-73
2024/04/25 06:57:49;;;;;;;14.50;8.53;;;7.60;99.90;;;;;;5467688;26;21037;-73
2024/04/25 07:00:36;;;;;;;17.20;8.53;;;7.40;99.90;;;;;;5490064;26;20498;-73
2024/04/25 07:03:26;;;;;;;13.00;8.17;;;7.40;99.90;;;;;;5482806;26;21064;-73
2024/04/25 07:06:13;;;;;;;13.73;7.90;;;7.40;99.90;;;;;;5478027;26;20576;-73
2024/04/25 07:09:06;;;;;;;13.90;8.43;;;7.50;99.90;;;;;;5490874;26;20511;-73
2024/04/25 07:11:53;;;;;;;9.60;7.30;;;7.60;99.90;;;;;;5489917;26;20556;-72
2024/04/25 07:14:40;;;;;;;22.87;9.70;;;7.70;99.90;;;;;;5482343;26;20498;-73
2024/04/25 07:17:28;;;;;;;13.80;7.20;;;7.60;99.90;;;;;;5484732;26;20537;-72
2024/04/25 07:20:18;;;;;;;13.37;8.47;;;7.70;99.90;;;;;;5494237;26;20581;-73
2024/04/25 07:23:05;;;;;;;12.17;7.10;;;7.70;99.90;;;;;;5492203;26;20501;-72
2024/04/25 07:25:53;;;;;;;14.50;7.50;;;7.70;99.90;;;;;;5491887;26;21646;-73
2024/04/25 07:28:40;;;;;;;11.07;7.63;;;7.50;99.90;;;;;;5489481;26;20572;-73
2024/04/25 07:31:27;;;;;;;16.00;9.83;;;7.40;99.90;;;;;;5487107;26;20562;-73
2024/04/25 07:34:15;;;;;;;13.23;7.47;;;7.50;99.90;;;;;;5486919;26;20549;-73
2024/04/25 07:37:05;;;;;;;16.97;9.07;;;7.40;99.90;;;;;;5498334;26;21049;-72
2024/04/25 07:39:52;;;;;;;16.67;7.70;;;7.40;99.90;;;;;;5483746;26;20519;-72
2024/04/25 07:42:39;;;;;;;19.23;9.20;;;7.10;99.90;;;;;;5492385;26;20907;-73
2024/04/25 07:45:28;;;;;;;12.80;7.70;;;7.10;99.90;;;;;;5492032;25;20566;-72
2024/04/25 07:48:15;;;;;;;13.30;7.67;;;7.10;99.90;;;;;;5491652;26;20550;-73
2024/04/25 07:51:02;;;;;;;11.23;7.87;;;7.20;99.90;;;;;;5493241;26;20544;-73
2024/04/25 07:53:52;;;;;;;14.50;8.30;;;7.30;99.90;;;;;;5486890;26;20891;-73
2024/04/25 07:56:39;;;;;;;20.43;8.50;;;7.30;99.90;;;;;;5492674;26;20505;-73
2024/04/25 07:59:29;;;;;;;17.43;8.90;;;7.40;99.90;;;;;;5485115;26;20555;-73
2024/04/25 08:02:16;;;;;;;21.00;10.90;;;7.40;99.90;;;;;;5479669;26;20538;-73
2024/04/25 08:05:04;;;;;;;18.07;8.50;;;7.50;99.90;;;;;;5497809;26;21115;-73
2024/04/25 08:07:51;;;;;;;15.00;8.80;;;7.60;99.90;;;;;;5490866;26;20503;-73
2024/04/25 08:10:40;;;;;;;16.87;9.33;;;7.70;99.90;;;;;;5499501;26;20540;-73
2024/04/25 08:13:27;;;;;;;17.93;7.60;;;7.70;99.90;;;;;;5491219;26;20533;-72
2024/04/25 08:16:15;;;;;;;13.60;9.30;;;7.50;99.90;;;;;;5498803;25;20571;-74
2024/04/25 08:19:02;;;;;;;11.30;8.87;;;7.50;99.90;;;;;;5486744;26;21115;-73
2024/04/25 08:21:49;;;;;;;13.77;9.07;;;7.60;99.90;;;;;;5485684;26;20517;-73
2024/04/25 08:24:37;;;;;;;13.90;9.13;;;7.70;99.90;;;;;;5499453;26;21110;-73
2024/04/25 08:27:26;;;;;;;13.93;9.40;;;7.80;99.90;;;;;;5486787;26;20516;-73
2024/04/25 08:30:14;;;;;;;13.50;8.07;;;7.60;99.90;;;;;;5477773;26;20522;-73
2024/04/25 08:33:01;;;;;;;16.17;9.03;;;7.60;99.90;;;;;;5481289;26;20508;-73
2024/04/25 08:35:49;;;;;;;17.73;9.17;;;7.30;99.90;;;;;;5476588;26;20558;-73
2024/04/25 08:38:37;;;;;;;14.63;9.05;;;7.30;99.90;;;;;;5479540;26;21097;-73
2024/04/25 08:41:25;;;;;;;18.70;9.43;;;7.30;99.90;;;;;;5479339;26;20272;-73
2024/04/25 08:44:16;;;;;;;15.67;9.80;;;7.20;99.90;;;;;;5488604;26;20505;-73
2024/04/25 08:47:04;;;;;;;13.30;8.40;;;7.40;99.90;;;;;;5486072;25;20527;-73
2024/04/25 08:49:53;;;;;;;19.20;8.83;;;7.60;99.90;;;;;;5480689;26;20513;-73
2024/04/25 08:52:43;;;;;;;14.47;8.30;;;7.80;99.90;;;;;;5477804;26;21077;-73
2024/04/25 08:55:30;;;;;;;23.30;9.03;;;7.70;99.90;;;;;;5485882;26;21280;-73
2024/04/25 08:58:18;;;;;;;24.50;10.20;;;7.80;99.90;;;;;;5483284;26;20516;-73
2024/04/25 09:01:11;;;;;;;10.47;8.20;;;7.90;99.90;;;;;;5480645;26;20611;-73
2024/04/25 09:04:02;;;;;;;12.67;8.23;;;7.90;99.90;;;;;;5486096;26;21215;-73
2024/04/25 09:06:49;;;;;;;16.63;8.03;;;7.80;99.90;;;;;;5478669;25;20547;-72
2024/04/25 09:09:37;;;;;;;13.00;7.83;;;7.70;99.90;;;;;;5479028;26;20580;-73
2024/04/25 09:12:24;;;;;;;16.90;8.63;;;7.80;99.90;;;;;;5482508;26;20903;-73
2024/04/25 09:15:12;;;;;;;12.37;8.40;;;7.80;99.90;;;;;;5482628;26;20512;-73
2024/04/25 09:18:04;;;;;;;15.30;7.67;;;7.70;99.90;;;;;;5477090;26;20585;-73
2024/04/25 09:20:53;;;;;;;13.67;7.10;;;7.70;99.90;;;;;;5476783;26;20991;-73
2024/04/25 09:23:41;;;;;;;12.67;7.33;;;7.70;99.90;;;;;;5477765;26;20553;-72
2024/04/25 09:26:30;;;;;;;15.10;8.50;;;7.70;99.90;;;;;;5475566;25;20581;-73
2024/04/25 09:29:18;;;;;;;14.40;7.80;;;7.60;99.90;;;;;;5486649;26;20563;-73
2024/04/25 09:32:08;;;;;;;11.30;7.10;;;7.60;99.90;;;;;;5488151;26;21144;-73
2024/04/25 09:34:58;;;;;;;21.33;6.07;;;7.60;99.90;;;;;;5483550;26;20575;-73
2024/04/25 09:37:45;;;;;;;16.57;7.70;;;7.50;99.90;;;;;;5476486;26;20568;-72
2024/04/25 09:40:32;;;;;;;8.17;6.80;;;7.20;99.90;;;;;;5477316;26;20523;-73
2024/04/25 09:43:20;;;;;;;15.20;6.50;;;7.20;99.90;;;;;;5479500;26;20612;-72
2024/04/25 09:46:14;;;;;;;11.00;8.13;;;7.30;99.90;;;;;;5474458;26;20526;-72
2024/04/25 09:49:05;;;;;;;11.70;8.13;;;7.30;99.90;;;;;;5475251;26;20525;-73
2024/04/25 09:52:03;;;;;;;17.73;8.23;;;7.40;99.90;;;;;;5482054;26;20853;-73
2024/04/25 09:54:54;;;;;;;12.90;7.40;;;7.30;99.90;;;;;;5477215;26;20526;-73
2024/04/25 09:57:45;;;;;;;27.20;8.67;;;7.20;99.90;;;;;;5477820;26;20578;-73
2024/04/25 10:00:34;;;;;;;13.17;9.13;;;7.00;99.90;;;;;;5476998;26;20584;-73
2024/04/25 10:03:22;;;;;;;19.50;9.30;;;6.90;99.90;;;;;;5488374;26;20892;-73
2024/04/25 10:06:10;;;;;;;13.53;8.87;;;6.50;99.90;;;;;;5476646;26;20513;-73
2024/04/25 10:09:00;;;;;;;15.77;9.03;;;6.40;99.90;;;;;;5474933;26;20568;-73
2024/04/25 10:11:50;;;;;;;16.67;9.80;;;6.40;99.90;;;;;;5484613;26;21096;-73
2024/04/25 10:14:38;;;;;;;19.00;9.00;;;6.50;99.90;;;;;;5474683;26;20503;-72
2024/04/25 10:17:26;;;;;;;18.80;10.50;;;6.70;99.90;;;;;;5474803;26;20528;-72
2024/04/25 10:20:20;;;;;;;12.90;10.30;;;6.90;99.90;;;;;;5477906;26;20587;-74
2024/04/25 10:23:09;;;;;;;12.97;8.70;;;7.40;99.90;;;;;;5474900;26;20512;-73
2024/04/25 10:25:59;;;;;;;8.50;7.27;;;7.80;99.90;;;;;;5485578;26;20838;-73
2024/04/25 10:28:57;;;;;;;11.20;7.10;;;8.00;99.90;;;;;;5483286;26;20882;-73
2024/04/25 10:31:45;;;;;;;10.53;7.33;;;8.10;99.90;;;;;;5484291;26;20503;-73
2024/04/25 10:34:32;;;;;;;10.83;6.73;;;8.20;99.90;;;;;;5491174;26;20496;-73
2024/04/25 10:37:19;;;;;;;11.80;8.10;;;8.10;99.90;;;;;;5488884;26;20482;-73
2024/04/25 10:40:08;;;;;;;11.60;7.53;;;8.10;99.90;;;;;;5486178;26;20570;-73
2024/04/25 10:43:02;;;;;;;20.33;7.23;;;8.10;99.90;;;;;;5484211;26;21112;-73
2024/04/25 10:45:49;;;;;;;12.00;4.60;;;8.10;99.90;;;;;;5481459;26;20573;-73
2024/04/25 10:48:36;;;;;;;4.53;2.70;;;8.00;99.90;;;;;;5483257;26;20589;-73
2024/04/25 10:51:25;;;;;;;4.00;2.80;;;7.70;99.90;;;;;;5487162;26;20539;-73
2024/04/25 10:54:13;;;;;;;9.80;3.03;;;7.90;99.90;;;;;;5489211;26;20503;-73
2024/04/25 10:57:00;;;;;;;8.33;3.90;;;8.40;99.90;;;;;;5497458;26;20513;-73
2024/04/25 10:59:51;;;;;;;3.37;2.30;;;8.80;99.90;;;;;;5492408;26;20891;-73
2024/04/25 11:02:39;;;;;;;3.30;1.73;;;9.00;99.90;;;;;;5483952;26;20576;-73
2024/04/25 11:05:26;;;;;;;2.23;1.67;;;9.40;99.90;;;;;;5489545;25;20506;-73
2024/04/25 11:08:14;;;;;;;2.70;1.63;;;9.70;99.90;;;;;;5489340;26;20506;-73
2024/04/25 11:11:01;;;;;;;4.57;2.03;;;9.90;99.90;;;;;;5485679;26;20513;-73
2024/04/25 11:13:48;;;;;;;4.50;1.60;;;10.10;99.90;;;;;;5494107;26;20475;-73
2024/04/25 11:16:42;;;;;;;6.00;2.20;;;10.30;99.90;;;;;;5495166;26;20627;-73
2024/04/25 11:19:31;;;;;;;8.73;2.40;;;10.50;99.90;;;;;;5497397;26;20515;-73
2024/04/25 11:22:18;;;;;;;3.90;2.00;;;10.80;99.90;;;;;;5486684;26;20522;-73
2024/04/25 11:25:15;;;;;;;4.70;2.67;;;10.90;99.90;;;;;;5484901;26;20590;-73
2024/04/25 11:28:03;;;;;;;6.23;2.67;;;11.20;99.90;;;;;;5479945;26;20767;-73
2024/04/25 11:30:51;;;;;;;5.80;2.77;;;11.30;99.90;;;;;;5485088;26;20556;-73
2024/04/25 11:33:43;;;;;;;6.00;2.40;;;11.50;99.90;;;;;;5486172;26;20514;-73
2024/04/25 11:36:30;;;;;;;3.70;1.67;;;11.80;99.90;;;;;;5490370;26;20989;-73
2024/04/25 11:39:20;;;;;;;3.73;1.83;;;11.80;91.90;;;;;;5489095;26;20561;-73
2024/04/25 11:42:09;;;;;;;1.97;1.27;;;11.40;81.40;;;;;;5488287;26;20494;-73
2024/04/25 11:44:56;;;;;;;4.77;2.53;;;11.00;86.70;;;;;;5488362;26;20517;-74
2024/04/25 11:47:44;;;;;;;2.40;1.50;;;11.00;84.80;;;;;;5492438;26;21001;-73
2024/04/25 11:50:34;;;;;;;4.17;1.90;;;10.80;65.10;;;;;;5488223;26;20567;-73
2024/04/25 11:53:21;;;;;;;6.03;1.87;;;10.50;70.10;;;;;;5487177;26;20555;-73
2024/04/25 11:56:09;;;;;;;3.13;1.60;;;10.40;77.70;;;;;;5486856;26;20563;-73
2024/04/25 11:58:56;;;;;;;4.60;2.00;;;10.20;75.30;;;;;;5483182;26;20859;-73
2024/04/25 12:01:44;;;;;;;4.50;2.10;;;10.20;80.50;;;;;;5486485;26;20551;-73
2024/04/25 12:04:31;;;;;;;5.53;2.50;;;10.20;84.50;;;;;;5481492;26;20506;-73
2024/04/25 12:07:21;;;;;;;5.53;2.67;;;10.30;85.80;;;;;;5478104;25;20553;-73
2024/04/25 12:10:08;;;;;;;4.23;2.50;;;10.40;89.40;;;;;;5479922;26;20500;-74
2024/04/25 12:12:56;;;;;;;5.47;2.50;;;10.50;88.70;;;;;;5480710;26;21070;-74
2024/04/25 12:15:43;;;;;;;5.03;2.73;;;10.70;87.90;;;;;;5482697;26;20553;-74
2024/04/25 12:18:31;;;;;;;11.60;2.90;;;10.70;67.00;;;;;;5483882;26;20900;-74
2024/04/25 12:21:20;;;;;;;6.20;2.37;;;10.80;69.30;;;;;;5486187;26;20500;-73
2024/04/25 12:24:10;;;;;;;3.73;2.00;;;10.90;77.90;;;;;;5499387;26;20539;-73
2024/04/25 12:26:58;;;;;;;4.50;2.17;;;11.20;67.70;;;;;;5486005;26;21144;-73
2024/04/25 12:29:45;;;;;;;5.30;2.10;;;11.30;54.10;;;;;;5492920;26;20904;-73
2024/04/25 12:32:32;;;;;;;3.37;1.90;;;11.70;62.50;;;;;;5477782;26;20520;-73
2024/04/25 12:35:20;;;;;;;4.70;1.67;;;12.00;39.30;;;;;;5483721;25;20942;-74
2024/04/25 12:38:08;;;;;;;3.60;1.50;;;12.30;35.70;;;;;;5484460;26;20562;-74
2024/04/25 12:40:58;;;;;;;3.10;1.53;;;12.20;31.90;;;;;;5477365;26;20527;-74
2024/04/25 12:43:48;;;;;;;3.20;1.47;;;12.20;29.40;;;;;;5475229;26;20508;-73
2024/04/25 12:46:35;;;;;;;6.53;1.70;;;12.00;34.30;;;;;;5482499;26;20505;-74
2024/04/25 12:49:35;;;;;;;2.80;1.43;;;11.80;33.10;;;;;;5474707;26;20504;-73
2024/04/25 12:52:23;;;;;;;2.20;1.30;;;11.30;29.40;;;;;;5476294;26;20506;-74
2024/04/25 12:55:10;;;;;;;4.50;1.67;;;10.90;28.90;;;;;;5478729;26;20564;-73
2024/04/25 12:58:00;;;;;;;3.40;1.67;;;10.50;31.40;;;;;;5477271;26;20518;-73
2024/04/25 13:00:47;;;;;;;5.13;2.40;;;10.30;46.40;;;;;;5472295;26;21030;-73
2024/04/25 13:03:34;;;;;;;6.83;2.20;;;10.20;45.40;;;;;;5474550;26;20901;-73
2024/04/25 13:06:21;;;;;;;5.20;2.40;;;10.20;47.60;;;;;;5477341;25;20525;-74
2024/04/25 13:09:09;;;;;;;4.00;2.43;;;10.30;43.70;;;;;;5481460;26;20494;-73
2024/04/25 13:11:56;;;;;;;3.10;1.70;;;10.40;41.10;;;;;;5479728;26;20509;-74
2024/04/25 13:14:46;;;;;;;4.57;2.90;;;10.40;39.30;;;;;;5474072;26;20530;-73
2024/04/25 13:17:35;;;;;;;6.00;2.93;;;10.30;40.50;;;;;;5479194;26;21103;-73
2024/04/25 13:20:22;;;;;;;6.80;2.60;;;10.20;37.10;;;;;;5477819;26;20535;-73
2024/04/25 13:23:09;;;;;;;8.17;2.70;;;10.10;40.40;;;;;;5480572;26;20585;-73
2024/04/25 13:25:57;;;;;;;3.40;2.00;;;10.10;46.30;;;;;;5474351;26;21089;-73
2024/04/25 13:28:44;;;;;;;7.50;3.00;;;10.00;50.20;;;;;;5473022;26;20575;-74
2024/04/25 13:31:35;;;;;;;5.60;2.33;;;10.10;51.40;;;;;;5474042;26;20513;-73
2024/04/25 13:34:22;;;;;;;3.03;2.00;;;10.10;45.50;;;;;;5481335;26;20555;-74
2024/04/25 13:37:10;;;;;;;3.73;2.00;;;10.00;42.60;;;;;;5478212;26;20862;-73
2024/04/25 13:39:57;;;;;;;8.93;2.10;;;10.00;47.00;;;;;;5480843;26;20503;-74
2024/04/25 13:42:44;;;;;;;5.13;1.80;;;10.10;49.00;;;;;;5478748;26;21047;-74
2024/04/25 13:45:32;;;;;;;6.57;1.70;;;10.10;45.40;;;;;;5479011;25;20501;-74
2024/04/25 13:48:22;;;;;;;5.30;2.17;;;10.30;52.40;;;;;;5478662;26;20502;-73
2024/04/25 13:51:09;;;;;;;6.30;1.93;;;10.50;44.40;;;;;;5474922;26;21069;-74
2024/04/25 13:53:58;;;;;;;9.47;2.10;;;10.80;47.10;;;;;;5474634;26;20513;-74
2024/04/25 13:56:47;;;;;;;7.40;2.63;;;11.30;42.50;;;;;;5486677;26;20525;-74
2024/04/25 13:59:34;;;;;;;5.93;1.90;;;11.50;32.30;;;;;;5474170;26;20496;-74
2024/04/25 14:02:22;;;;;;;6.13;1.83;;;11.50;23.40;;;;;;5424159;21;20532;-87
2024/04/25 14:05:11;;;;;;;5.90;1.80;;;11.60;27.50;;;;;;5400817;26;20520;-86
2024/04/25 14:07:59;;;;;;;2.73;1.60;;;11.50;25.60;;;;;;5400138;26;20561;-87
2024/04/25 14:10:47;;;;;;;4.23;1.63;;;11.40;25.80;;;;;;5408841;26;21129;-86
2024/04/25 14:13:34;;;;;;;4.53;1.60;;;11.20;23.40;;;;;;5400508;26;20547;-86
2024/04/25 14:16:21;;;;;;;2.40;1.43;;;11.10;24.20;;;;;;5401314;26;21137;-87
2024/04/25 14:19:09;;;;;;;6.10;1.90;;;11.00;25.40;;;;;;5400490;26;21619;-86
2024/04/25 14:21:59;;;;;;;4.63;1.60;;;10.80;30.70;;;;;;5405403;26;20518;-87
2024/04/25 14:24:52;;;;;;;3.70;1.60;;;10.50;25.90;;;;;;5396910;26;20478;-86
2024/04/25 14:30:48;;;;;;;4.20;1.30;;;10.30;27.90;;;;;;5338868;26;21089;-86
2024/04/25 14:33:35;;;;;;;4.13;1.83;;;10.30;30.20;;;;;;5398708;26;20499;-87
2024/04/25 14:36:22;;;;;;;3.57;1.30;;;10.30;30.30;;;;;;5403224;26;20524;-86
2024/04/25 14:39:12;;;;;;;3.43;1.17;;;10.40;30.90;;;;;;5400117;26;20787;-86
2024/04/25 14:42:00;;;;;;;8.40;2.33;;;10.40;29.50;;;;;;5404489;26;20519;-87
2024/04/25 14:44:48;;;;;;;3.83;1.30;;;10.50;28.80;;;;;;5402934;26;20485;-86
2024/04/25 14:47:35;;;;;;;2.33;1.60;;;10.50;27.60;;;;;;5396809;26;20464;-86